| time (UTC) | temp F | wind direction | speed knots | gust knots | rain 1hr in | rain 24hr in | rain mn in | humidity % | barometer mb |
| 20260502195009 | 55 | 60 | 0.0 | 0.0 | 0.01 | 0.18 | 0.18 | 92 | 1011.7 |
| 20260502194526 | 55 | 60 | 0.0 | 0.0 | 0.01 | 0.18 | 0.18 | 91 | 1011.7 |
| 20260502194011 | 55 | 71 | 0.0 | 0.0 | 0.02 | 0.18 | 0.18 | 91 | 1011.8 |
| 20260502193512 | 55 | 34 | 0.0 | 0.0 | 0.03 | 0.18 | 0.18 | 91 | 1011.8 |
| 20260502193016 | 55 | 34 | 0.0 | 0.0 | 0.03 | 0.18 | 0.18 | 91 | 1011.8 |
| 20260502192508 | 55 | 35 | 0.0 | 0.0 | 0.03 | 0.18 | 0.18 | 91 | 1011.8 |
| 20260502192009 | 55 | 30 | 0.0 | 0.0 | 0.03 | 0.18 | 0.18 | 91 | 1011.8 |
| 20260502191519 | 55 | 28 | 0.0 | 0.0 | 0.05 | 0.18 | 0.18 | 91 | 1011.9 |
| 20260502191008 | 56 | 34 | 0.0 | 0.0 | 0.05 | 0.17 | 0.17 | 91 | 1012.1 |
| 20260502190511 | 56 | 34 | 0.0 | 0.0 | 0.05 | 0.16 | 0.16 | 90 | 1012.2 |
| 20260502190031 | 56 | 57 | 0.0 | 0.0 | 0.06 | 0.16 | 0.16 | 90 | 1012.3 |
| 20260502185508 | 56 | 42 | 0.0 | 0.0 | 0.07 | 0.16 | 0.16 | 90 | 1012.2 |
| 20260502185011 | 56 | 37 | 0.0 | 0.0 | 0.08 | 0.16 | 0.16 | 90 | 1012.2 |
| 20260502184532 | 56 | 37 | 0.0 | 0.0 | 0.09 | 0.16 | 0.16 | 90 | 1012.2 |
| 20260502184014 | 56 | 37 | 0.0 | 1.7 | 0.09 | 0.15 | 0.15 | 89 | 1012.3 |
| 20260502183511 | 56 | 52 | 0.0 | 1.7 | 0.10 | 0.14 | 0.14 | 89 | 1012.4 |
| 20260502183028 | 56 | 331 | 0.0 | 1.7 | 0.11 | 0.14 | 0.14 | 89 | 1012.4 |
| 20260502182507 | 56 | 182 | 0.0 | 1.7 | 0.12 | 0.14 | 0.14 | 88 | 1012.5 |
| 20260502182011 | 56 | 198 | 0.0 | 0.9 | 0.13 | 0.14 | 0.14 | 88 | 1012.7 |
| 20260502181517 | 56 | 198 | 0.0 | 1.7 | 0.12 | 0.12 | 0.12 | 87 | 1012.7 |
| 20260502181008 | 57 | 198 | 0.0 | 1.7 | 0.11 | 0.11 | 0.11 | 86 | 1012.8 |
| 20260502180508 | 57 | 213 | 0.0 | 1.7 | 0.11 | 0.11 | 0.11 | 86 | 1012.9 |
| 20260502170508 | 63 | 45 | 0.0 | 1.7 | 0.00 | 0.00 | 0.00 | 68 | 1012.8 |
| 20260502164011 | 64 | 46 | 0.0 | 1.7 | 0.00 | 0.00 | 0.00 | 61 | 1012.9 |
| 20260502163511 | 64 | 57 | 0.0 | 1.7 | 0.00 | 0.00 | 0.00 | 61 | 1012.9 |
| 20260502163030 | 64 | 144 | 0.0 | 1.7 | 0.00 | 0.00 | 0.00 | 61 | 1012.9 |
| 20260502162510 | 64 | 144 | 0.0 | 1.7 | 0.00 | 0.00 | 0.00 | 60 | 1012.9 |
| 20260502162011 | 65 | 338 | 0.0 | 0.0 | 0.00 | 0.00 | 0.00 | 60 | 1013.0 |
| 20260502161525 | 65 | 344 | 0.0 | 1.7 | 0.00 | 0.00 | 0.00 | 60 | 1013.0 |
| 20260502161010 | 65 | 22 | 0.0 | 1.7 | 0.00 | 0.00 | 0.00 | 59 | 1013.0 |
| 20260502160513 | 65 | 42 | 0.0 | 1.7 | 0.00 | 0.00 | 0.00 | 58 | 1013.1 |
| 20260502152008 | 64 | 226 | 0.0 | 1.7 | 0.00 | 0.00 | 0.00 | 59 | 1013.8 |
| 20260502151527 | 64 | 254 | 0.0 | 1.7 | 0.00 | 0.00 | 0.00 | 59 | 1013.9 |
| 20260502151011 | 64 | 244 | 0.0 | 1.7 | 0.00 | 0.00 | 0.00 | 58 | 1013.9 |
| 20260502150510 | 65 | 123 | 0.0 | 2.6 | 0.00 | 0.00 | 0.00 | 58 | 1014.0 |
| 20260502130504 | 65 | 246 | 0.9 | 5.2 | 0.00 | 0.00 | 0.00 | 55 | 1015.9 |
| 20260502123512 | 63 | 214 | 1.7 | 4.3 | 0.00 | 0.00 | 0.00 | 59 | 1016.2 |
| 20260502123028 | 63 | 295 | 0.9 | 6.1 | 0.00 | 0.00 | 0.00 | 58 | 1016.2 |
| 20260502122507 | 63 | 239 | 1.7 | 6.1 | 0.00 | 0.00 | 0.00 | 56 | 1016.3 |
| 20260502122012 | 63 | 207 | 1.7 | 7.0 | 0.00 | 0.00 | 0.00 | 58 | 1016.3 |
| 20260502121524 | 64 | 178 | 1.7 | 7.0 | 0.00 | 0.00 | 0.00 | 55 | 1016.3 |
| 20260502121004 | 64 | 239 | 1.7 | 6.1 | 0.00 | 0.00 | 0.00 | 55 | 1016.3 |
| 20260502120504 | 64 | 273 | 1.7 | 6.1 | 0.00 | 0.00 | 0.00 | 57 | 1016.5 |
| 20260502115504 | 64 | 184 | 2.6 | 7.0 | 0.00 | 0.00 | 0.00 | 58 | 1016.7 |
| 20260502115008 | 63 | 152 | 2.6 | 7.0 | 0.00 | 0.00 | 0.00 | 58 | 1016.9 |
| 20260502114525 | 63 | 147 | 0.9 | 6.1 | 0.00 | 0.00 | 0.00 | 58 | 1016.9 |
| 20260502114007 | 63 | 261 | 1.7 | 7.0 | 0.00 | 0.00 | 0.00 | 59 | 1016.9 |
| 20260502113507 | 63 | 222 | 2.6 | 7.0 | 0.00 | 0.00 | 0.00 | 57 | 1016.9 |
| 20260502113025 | 63 | 190 | 0.9 | 8.7 | 0.00 | 0.00 | 0.00 | 61 | 1016.8 |
| 20260502112508 | 63 | 157 | 2.6 | 8.7 | 0.00 | 0.00 | 0.00 | 60 | 1016.8 |
| 20260502112008 | 63 | 208 | 3.5 | 7.8 | 0.00 | 0.00 | 0.00 | 58 | 1016.8 |
| 20260502111522 | 62 | 174 | 2.6 | 6.1 | 0.00 | 0.00 | 0.00 | 61 | 1016.8 |
| 20260502111008 | 62 | 147 | 1.7 | 6.1 | 0.00 | 0.00 | 0.00 | 60 | 1017.0 |
| 20260502110509 | 63 | 257 | 2.6 | 6.1 | 0.00 | 0.00 | 0.00 | 61 | 1017.1 |
| 20260502110014 | 62 | 219 | 2.6 | 7.8 | 0.00 | 0.00 | 0.00 | 61 | 1017.2 |
| 20260502105512 | 62 | 145 | 3.5 | 8.7 | 0.00 | 0.00 | 0.00 | 61 | 1017.3 |
| 20260502105008 | 62 | 254 | 2.6 | 8.7 | 0.00 | 0.00 | 0.00 | 61 | 1017.3 |
| 20260502104519 | 63 | 178 | 2.6 | 8.7 | 0.00 | 0.00 | 0.00 | 61 | 1017.5 |
| 20260502104010 | 63 | 186 | 3.5 | 8.7 | 0.00 | 0.00 | 0.00 | 61 | 1017.4 |
| 20260502103512 | 63 | 163 | 2.6 | 11.3 | 0.00 | 0.00 | 0.00 | 60 | 1017.4 |
| 20260502103021 | 63 | 191 | 5.2 | 11.3 | 0.00 | 0.00 | 0.00 | 59 | 1017.4 |
| 20260502102510 | 63 | 289 | 2.6 | 7.8 | 0.00 | 0.00 | 0.00 | 62 | 1017.2 |
| 20260502102008 | 62 | 111 | 2.6 | 4.3 | 0.00 | 0.00 | 0.00 | 63 | 1017.3 |
| 20260502101525 | 61 | 145 | 1.7 | 6.1 | 0.00 | 0.00 | 0.00 | 64 | 1017.3 |
| 20260502101011 | 61 | 142 | 2.6 | 5.2 | 0.00 | 0.00 | 0.00 | 64 | 1017.4 |
| 20260502100511 | 61 | 182 | 1.7 | 6.1 | 0.00 | 0.00 | 0.00 | 64 | 1017.4 |
| 20260502091520 | 58 | 251 | 1.7 | 4.3 | 0.00 | 0.00 | 0.00 | 70 | 1017.9 |
| 20260502091010 | 57 | 217 | 0.9 | 3.5 | 0.00 | 0.00 | 0.00 | 72 | 1017.9 |
| 20260502090510 | 57 | 227 | 0.9 | 6.1 | 0.00 | 0.00 | 0.00 | 70 | 1017.9 |
| 20260502071519 | 50 | 224 | 0.0 | 1.7 | 0.00 | 0.00 | 0.00 | 91 | 1018.5 |
| 20260502071008 | 49 | 211 | 0.0 | 1.7 | 0.00 | 0.00 | 0.00 | 92 | 1018.5 |
| 20260502070509 | 49 | 360 | 0.0 | 1.7 | 0.00 | 0.00 | 0.00 | 91 | 1018.4 |
| 20260502070026 | 49 | 360 | 0.0 | 1.7 | 0.00 | 0.00 | 0.00 | 92 | 1018.5 |
| 20260502065511 | 49 | 360 | 0.9 | 1.7 | 0.00 | 0.00 | 0.00 | 92 | 1018.4 |
| 20260502065012 | 49 | 360 | 0.0 | 1.7 | 0.00 | 0.00 | 0.00 | 93 | 1018.3 |
| 20260502064505 | 49 | 360 | 0.9 | 1.7 | 0.00 | 0.00 | 0.00 | 93 | 1018.4 |
| 20260502064003 | 49 | 360 | 0.9 | 1.7 | 0.00 | 0.00 | 0.00 | 94 | 1018.4 |
| 20260502063504 | 49 | 360 | 0.0 | 0.0 | 0.00 | 0.00 | 0.00 | 94 | 1018.3 |
| 20260502063019 | 48 | 360 | 0.0 | 2.6 | 0.00 | 0.00 | 0.00 | 94 | 1018.3 |
| 20260502062507 | 48 | 360 | 0.0 | 2.6 | 0.00 | 0.00 | 0.00 | 94 | 1018.3 |
| 20260502062009 | 48 | 360 | 0.0 | 2.6 | 0.00 | 0.00 | 0.00 | 94 | 1018.3 |
| 20260502061516 | 48 | 360 | 0.0 | 2.6 | 0.00 | 0.00 | 0.00 | 94 | 1018.3 |
| 20260502061009 | 48 | 360 | 0.9 | 2.6 | 0.00 | 0.00 | 0.00 | 94 | 1018.3 |
| 20260502060507 | 48 | 360 | 0.0 | 1.7 | 0.00 | 0.00 | 0.00 | 94 | 1018.2 |
| 20260502060030 | 48 | 360 | 0.0 | 1.7 | 0.00 | 0.00 | 0.00 | 94 | 1018.2 |
| 20260502055506 | 48 | 360 | 0.0 | 1.7 | 0.00 | 0.00 | 0.00 | 94 | 1018.1 |
| 20260502055010 | 48 | 360 | 0.0 | 3.5 | 0.00 | 0.00 | 0.00 | 94 | 1018.1 |
| 20260502054527 | 48 | 360 | 0.0 | 3.5 | 0.00 | 0.00 | 0.00 | 94 | 1018.2 |
| 20260502054009 | 48 | 360 | 0.9 | 2.6 | 0.00 | 0.00 | 0.00 | 94 | 1018.2 |
| 20260502053504 | 48 | 360 | 0.0 | 1.7 | 0.00 | 0.00 | 0.00 | 94 | 1018.2 |
| 20260502053008 | 48 | 360 | 0.9 | 1.7 | 0.00 | 0.00 | 0.00 | 94 | 1018.1 |
| 20260502052507 | 48 | 360 | 0.9 | 1.7 | 0.00 | 0.00 | 0.00 | 94 | 1018.0 |
| 20260502052008 | 48 | 360 | 0.0 | 1.7 | 0.00 | 0.00 | 0.00 | 94 | 1018.0 |
| 20260502051513 | 48 | 360 | 0.0 | 1.7 | 0.00 | 0.00 | 0.00 | 94 | 1018.0 |
| 20260502051008 | 48 | 360 | 0.0 | 1.7 | 0.00 | 0.00 | 0.00 | 94 | 1018.0 |
| 20260502050508 | 48 | 360 | 0.9 | 1.7 | 0.00 | 0.00 | 0.00 | 94 | 1018.0 |
| 20260502050022 | 48 | 360 | 0.0 | 1.7 | 0.00 | 0.00 | 0.00 | 94 | 1017.9 |
| 20260502045508 | 48 | 360 | 0.0 | 1.7 | 0.00 | 0.00 | 0.00 | 94 | 1018.0 |
| 20260502045008 | 48 | 360 | 0.0 | 0.0 | 0.00 | 0.00 | 0.00 | 95 | 1018.0 |
| 20260502044524 | 48 | 360 | 0.0 | 0.0 | 0.00 | 0.00 | 0.00 | 95 | 1018.0 |
| 20260502044009 | 48 | 360 | 0.0 | 0.0 | 0.00 | 0.00 | 0.00 | 95 | 1017.9 |
| 20260502043513 | 48 | 360 | 0.0 | 0.0 | 0.00 | 0.00 | 0.00 | 95 | 1017.9 |
| 20260502043029 | 47 | 360 | 0.0 | 0.0 | 0.00 | 0.00 | 0.00 | 95 | 1017.9 |
| 20260502042509 | 47 | 360 | 0.0 | 0.0 | 0.00 | 0.00 | 0.00 | 95 | 1017.9 |
| 20260502042004 | 47 | 360 | 0.0 | 0.0 | 0.00 | 0.00 | 0.00 | 95 | 1018.0 |
| 20260502041510 | 47 | 360 | 0.0 | 0.0 | 0.00 | 0.00 | 0.00 | 95 | 1018.0 |
| 20260502041007 | 46 | 360 | 0.0 | 0.0 | 0.00 | 0.00 | 0.00 | 95 | 1018.1 |
| 20260502040507 | 46 | 360 | 0.0 | 0.0 | 0.00 | 0.00 | 0.00 | 94 | 1018.1 |
| 20260502040022 | 46 | 360 | 0.0 | 0.0 | 0.00 | 0.00 | 0.00 | 94 | 1018.2 |
| 20260502035507 | 45 | 360 | 0.0 | 0.0 | 0.00 | 0.00 | 0.00 | 93 | 1018.2 |
| 20260502035007 | 45 | 360 | 0.0 | 0.0 | 0.00 | 0.00 | 0.00 | 93 | 1018.3 |
| 20260502034522 | 45 | 360 | 0.0 | 0.0 | 0.00 | 0.00 | 0.00 | 92 | 1018.2 |
| 20260502034008 | 45 | 360 | 0.0 | 0.0 | 0.00 | 0.00 | 0.00 | 92 | 1018.2 |
| 20260502033508 | 45 | 360 | 0.0 | 0.0 | 0.00 | 0.00 | 0.00 | 91 | 1018.3 |
| 20260502033029 | 46 | 360 | 0.0 | 0.0 | 0.00 | 0.00 | 0.00 | 91 | 1018.3 |
| 20260502032508 | 46 | 360 | 0.0 | 0.0 | 0.00 | 0.00 | 0.00 | 91 | 1018.3 |
| 20260502032011 | 46 | 360 | 0.0 | 0.0 | 0.00 | 0.00 | 0.00 | 91 | 1018.3 |
| 20260502031526 | 46 | 360 | 0.0 | 0.0 | 0.00 | 0.00 | 0.00 | 91 | 1018.3 |
| 20260502031004 | 47 | 360 | 0.0 | 0.0 | 0.00 | 0.00 | 0.00 | 91 | 1018.3 |
| 20260502030507 | 47 | 360 | 0.0 | 0.0 | 0.00 | 0.00 | 0.00 | 91 | 1018.3 |
| 20260502030017 | 47 | 360 | 0.0 | 0.0 | 0.00 | 0.00 | 0.00 | 91 | 1018.3 |
| 20260502025506 | 47 | 360 | 0.0 | 0.0 | 0.00 | 0.00 | 0.00 | 91 | 1018.3 |
| 20260502025006 | 48 | 360 | 0.0 | 0.0 | 0.00 | 0.00 | 0.00 | 91 | 1018.4 |
| 20260502024521 | 48 | 360 | 0.0 | 0.0 | 0.00 | 0.00 | 0.00 | 91 | 1018.4 |
| 20260502024010 | 48 | 360 | 0.0 | 0.0 | 0.00 | 0.00 | 0.00 | 91 | 1018.4 |
| 20260502023510 | 48 | 360 | 0.0 | 0.0 | 0.00 | 0.00 | 0.00 | 92 | 1018.4 |
| 20260502023022 | 49 | 360 | 0.0 | 0.0 | 0.00 | 0.00 | 0.00 | 92 | 1018.5 |
| 20260502022507 | 49 | 360 | 0.0 | 0.0 | 0.00 | 0.00 | 0.00 | 92 | 1018.6 |
| 20260502022007 | 49 | 360 | 0.0 | 0.0 | 0.00 | 0.00 | 0.00 | 93 | 1018.6 |
| 20260502021525 | 49 | 360 | 0.0 | 0.0 | 0.00 | 0.00 | 0.00 | 93 | 1018.7 |
| 20260502021009 | 49 | 360 | 0.0 | 0.0 | 0.00 | 0.00 | 0.00 | 93 | 1018.7 |
| 20260502020512 | 48 | 360 | 0.0 | 0.0 | 0.00 | 0.00 | 0.00 | 93 | 1018.7 |
| 20260502020028 | 48 | 360 | 0.0 | 0.0 | 0.00 | 0.00 | 0.00 | 93 | 1018.7 |
| 20260502015504 | 48 | 360 | 0.0 | 0.0 | 0.00 | 0.00 | 0.00 | 92 | 1018.7 |
| 20260502015010 | 48 | 360 | 0.0 | 0.0 | 0.00 | 0.00 | 0.00 | 92 | 1018.7 |
| 20260502014523 | 48 | 360 | 0.0 | 0.0 | 0.00 | 0.00 | 0.00 | 91 | 1018.8 |
| 20260502014009 | 48 | 360 | 0.0 | 0.0 | 0.00 | 0.00 | 0.00 | 90 | 1018.8 |
| 20260502013507 | 48 | 360 | 0.0 | 0.0 | 0.00 | 0.00 | 0.00 | 89 | 1018.9 |
| 20260502013023 | 49 | 360 | 0.0 | 0.0 | 0.00 | 0.00 | 0.00 | 89 | 1018.9 |
| 20260502012508 | 49 | 360 | 0.0 | 0.0 | 0.00 | 0.00 | 0.00 | 89 | 1018.9 |
| 20260502012006 | 49 | 360 | 0.0 | 0.0 | 0.00 | 0.00 | 0.00 | 90 | 1019.0 |
| 20260502011524 | 50 | 360 | 0.0 | 0.0 | 0.00 | 0.00 | 0.00 | 90 | 1019.1 |
| 20260502011003 | 50 | 360 | 0.0 | 0.0 | 0.00 | 0.00 | 0.00 | 90 | 1019.1 |
| 20260502010504 | 50 | 360 | 0.0 | 0.0 | 0.00 | 0.00 | 0.00 | 90 | 1019.1 |
| 20260502010024 | 50 | 360 | 0.0 | 0.0 | 0.00 | 0.00 | 0.00 | 91 | 1019.1 |
| 20260502005505 | 50 | 360 | 0.0 | 0.0 | 0.00 | 0.00 | 0.00 | 91 | 1019.3 |
| 20260502005007 | 51 | 360 | 0.0 | 0.0 | 0.00 | 0.00 | 0.00 | 91 | 1019.3 |
| 20260502004526 | 51 | 360 | 0.0 | 0.0 | 0.00 | 0.00 | 0.00 | 91 | 1019.4 |
| 20260502004007 | 51 | 360 | 0.0 | 0.0 | 0.00 | 0.00 | 0.00 | 91 | 1019.4 |
| 20260502003508 | 50 | 360 | 0.0 | 0.0 | 0.00 | 0.00 | 0.00 | 91 | 1019.4 |
| 20260502003023 | 50 | 360 | 0.0 | 0.0 | 0.00 | 0.00 | 0.00 | 89 | 1019.5 |
| 20260502002509 | 51 | 360 | 0.0 | 0.0 | 0.00 | 0.00 | 0.00 | 89 | 1019.5 |
| 20260502002009 | 51 | 360 | 0.0 | 0.0 | 0.00 | 0.00 | 0.00 | 89 | 1019.5 |
| 20260502001524 | 51 | 360 | 0.0 | 0.0 | 0.00 | 0.00 | 0.00 | 89 | 1019.5 |
| 20260502001009 | 52 | 360 | 0.0 | 0.0 | 0.00 | 0.00 | 0.00 | 89 | 1019.6 |
| 20260502000509 | 52 | 360 | 0.0 | 0.0 | 0.00 | 0.00 | 0.00 | 89 | 1019.5 |
| 20260502000008 | 52 | 360 | 0.0 | 0.0 | 0.00 | 0.00 | 0.00 | 89 | 1019.5 |
| 20260501235503 | 52 | 360 | 0.0 | 0.0 | 0.00 | 0.00 | 0.00 | 89 | 1019.5 |
| 20260501235005 | 53 | 360 | 0.0 | 0.0 | 0.00 | 0.00 | 0.00 | 89 | 1019.5 |
| 20260501234514 | 53 | 360 | 0.0 | 0.0 | 0.00 | 0.00 | 0.00 | 89 | 1019.5 |
| 20260501234013 | 53 | 360 | 0.0 | 0.0 | 0.00 | 0.00 | 0.00 | 89 | 1019.5 |
| 20260501233512 | 53 | 360 | 0.0 | 0.0 | 0.00 | 0.00 | 0.00 | 89 | 1019.5 |
| 20260501233019 | 54 | 360 | 0.0 | 0.0 | 0.00 | 0.00 | 0.00 | 90 | 1019.6 |
| 20260501232509 | 54 | 360 | 0.0 | 0.0 | 0.00 | 0.00 | 0.00 | 90 | 1019.6 |
| 20260501232012 | 54 | 360 | 0.0 | 0.0 | 0.00 | 0.00 | 0.00 | 90 | 1019.7 |
| 20260501231521 | 54 | 360 | 0.0 | 0.0 | 0.00 | 0.00 | 0.00 | 90 | 1019.7 |
| 20260501231007 | 54 | 360 | 0.0 | 0.0 | 0.00 | 0.00 | 0.00 | 90 | 1019.8 |
| 20260501230511 | 54 | 360 | 0.0 | 0.0 | 0.00 | 0.00 | 0.00 | 90 | 1019.8 |
| 20260501230028 | 54 | 360 | 0.0 | 1.7 | 0.00 | 0.00 | 0.00 | 90 | 1019.8 |
| 20260501225510 | 53 | 360 | 0.0 | 1.7 | 0.00 | 0.00 | 0.00 | 91 | 1019.8 |
| 20260501225016 | 53 | 360 | 0.0 | 1.7 | 0.00 | 0.00 | 0.00 | 91 | 1019.7 |
| 20260501224510 | 53 | 360 | 0.0 | 1.7 | 0.00 | 0.00 | 0.00 | 91 | 1019.8 |
| 20260501224011 | 53 | 360 | 0.0 | 1.7 | 0.00 | 0.00 | 0.00 | 91 | 1019.8 |
| 20260501223507 | 53 | 360 | 0.0 | 1.7 | 0.00 | 0.00 | 0.00 | 91 | 1019.7 |
| 20260501223017 | 53 | 360 | 0.0 | 1.7 | 0.00 | 0.00 | 0.00 | 91 | 1019.8 |
| 20260501222509 | 53 | 360 | 0.0 | 0.0 | 0.00 | 0.00 | 0.00 | 91 | 1019.7 |
| 20260501222011 | 52 | 360 | 0.0 | 0.0 | 0.00 | 0.00 | 0.00 | 91 | 1019.7 |
| 20260501221521 | 52 | 360 | 0.0 | 0.0 | 0.00 | 0.00 | 0.00 | 91 | 1019.7 |
| 20260501221012 | 52 | 360 | 0.0 | 0.0 | 0.00 | 0.00 | 0.00 | 91 | 1019.6 |
| 20260501220509 | 52 | 360 | 0.0 | 0.0 | 0.00 | 0.00 | 0.00 | 90 | 1019.6 |
| 20260501220034 | 52 | 360 | 0.0 | 0.0 | 0.00 | 0.00 | 0.00 | 89 | 1019.7 |
| 20260501215510 | 52 | 360 | 0.0 | 0.0 | 0.00 | 0.00 | 0.00 | 89 | 1019.7 |
| 20260501215010 | 52 | 360 | 0.0 | 0.0 | 0.00 | 0.00 | 0.00 | 89 | 1019.7 |
| 20260501214529 | 52 | 360 | 0.0 | 0.0 | 0.00 | 0.00 | 0.00 | 89 | 1019.8 |
| 20260501214006 | 52 | 360 | 0.0 | 0.0 | 0.00 | 0.00 | 0.00 | 89 | 1019.8 |
| 20260501213507 | 52 | 360 | 0.0 | 0.0 | 0.00 | 0.00 | 0.00 | 88 | 1019.9 |
| 20260501213014 | 52 | 360 | 0.0 | 0.9 | 0.00 | 0.00 | 0.00 | 88 | 1019.8 |
| 20260501212504 | 52 | 360 | 0.0 | 0.9 | 0.00 | 0.00 | 0.00 | 86 | 1019.7 |
| 20260501212006 | 53 | 360 | 0.0 | 1.7 | 0.00 | 0.00 | 0.00 | 86 | 1019.6 |
| 20260501211518 | 53 | 360 | 0.0 | 1.7 | 0.00 | 0.00 | 0.00 | 86 | 1019.6 |
| 20260501211008 | 53 | 360 | 0.0 | 0.0 | 0.00 | 0.00 | 0.00 | 85 | 1019.5 |
| 20260501210509 | 53 | 360 | 0.0 | 0.0 | 0.00 | 0.00 | 0.00 | 85 | 1019.5 |
| 20260501210022 | 54 | 360 | 0.0 | 0.0 | 0.00 | 0.00 | 0.00 | 84 | 1019.5 |
| 20260501205509 | 54 | 360 | 0.0 | 0.0 | 0.00 | 0.00 | 0.00 | 84 | 1019.6 |
| 20260501205010 | 54 | 360 | 0.0 | 1.7 | 0.00 | 0.00 | 0.00 | 84 | 1019.6 |
| 20260501204539 | 54 | 252 | 0.0 | 1.7 | 0.00 | 0.00 | 0.00 | 84 | 1019.7 |
| 20260501204006 | 55 | 252 | 0.0 | 0.0 | 0.00 | 0.00 | 0.00 | 83 | 1019.7 |
| 20260501203510 | 55 | 252 | 0.0 | 0.0 | 0.00 | 0.00 | 0.00 | 82 | 1019.7 |
| 20260501203024 | 55 | 252 | 0.0 | 1.7 | 0.00 | 0.00 | 0.00 | 81 | 1019.7 |
| 20260501202503 | 56 | 252 | 0.0 | 1.7 | 0.00 | 0.00 | 0.00 | 81 | 1019.8 |
| 20260501202011 | 56 | 252 | 0.0 | 1.7 | 0.00 | 0.00 | 0.00 | 80 | 1019.8 |
| 20260501201516 | 56 | 252 | 0.0 | 1.7 | 0.00 | 0.00 | 0.00 | 80 | 1019.8 |
| 20260501201006 | 56 | 256 | 0.0 | 1.7 | 0.00 | 0.00 | 0.00 | 80 | 1019.7 |
| 20260501200507 | 57 | 262 | 0.0 | 1.7 | 0.00 | 0.00 | 0.00 | 80 | 1019.7 |
| 20260501200020 | 57 | 267 | 0.0 | 2.6 | 0.00 | 0.00 | 0.00 | 79 | 1019.7 |
| 20260501195513 | 57 | 273 | 0.9 | 2.6 | 0.00 | 0.00 | 0.00 | 79 | 1019.7 |